Time;durP1;ratioP1;P1;durP2;ratioP2;P2;SDS_P1;SDS_P2;PMS_P1;PMS_P2;Temp;Humidity;BMP_temperature;BMP_pressure;BME280_temperature;BME280_humidity;BME280_pressure;Samples;Min_cycle;Max_cycle;Signal;HPM_P1;HPM_P2
2022/09/06 00:00:55;;;;;;;2.17;1.30;;;;;;;;;;7394640;19;20073;-77
2022/09/06 00:03:20;;;;;;;2.85;1.23;;;;;;;;;;7394384;19;20459;-77
2022/09/06 00:05:46;;;;;;;1.35;1.17;;;;;;;;;;7396012;19;20029;-77
2022/09/06 00:08:11;;;;;;;1.50;1.00;;;;;;;;;;7393131;19;19999;-77
2022/09/06 00:10:36;;;;;;;1.20;1.10;;;;;;;;;;7392472;19;20090;-77
2022/09/06 00:13:04;;;;;;;4.00;1.30;;;;;;;;;;7395888;19;20031;-77
2022/09/06 00:15:30;;;;;;;1.33;1.05;;;;;;;;;;7395978;19;20017;-77
2022/09/06 00:18:00;;;;;;;1.38;1.10;;;;;;;;;;7391986;19;20002;-76
2022/09/06 00:20:28;;;;;;;1.80;1.52;;;;;;;;;;7394340;19;20031;-77
2022/09/06 00:23:02;;;;;;;1.25;1.13;;;;;;;;;;7393422;19;20034;-77
2022/09/06 00:25:28;;;;;;;2.58;1.15;;;;;;;;;;7394796;19;20537;-78
2022/09/06 00:27:56;;;;;;;1.80;1.50;;;;;;;;;;7392754;19;20012;-77
2022/09/06 00:30:22;;;;;;;1.75;1.20;;;;;;;;;;7392811;19;20556;-78
2022/09/06 00:32:47;;;;;;;2.03;1.63;;;;;;;;;;7393778;19;20011;-78
2022/09/06 00:35:12;;;;;;;4.03;1.80;;;;;;;;;;7394413;19;20027;-77
2022/09/06 00:37:38;;;;;;;2.58;1.50;;;;;;;;;;7391094;19;20007;-77
2022/09/06 00:40:03;;;;;;;2.85;1.73;;;;;;;;;;7393754;19;20018;-77
2022/09/06 00:42:29;;;;;;;3.45;1.90;;;;;;;;;;7392005;19;20013;-76
2022/09/06 00:44:54;;;;;;;1.45;1.35;;;;;;;;;;7393582;19;20006;-77
2022/09/06 00:47:19;;;;;;;1.20;1.10;;;;;;;;;;7390798;19;20021;-77
2022/09/06 00:49:47;;;;;;;3.97;1.90;;;;;;;;;;7394069;19;20014;-76
2022/09/06 00:52:15;;;;;;;2.63;1.70;;;;;;;;;;7391991;19;20037;-76
2022/09/06 00:54:41;;;;;;;2.63;1.55;;;;;;;;;;7392857;19;20030;-77
2022/09/06 00:57:06;;;;;;;1.33;1.20;;;;;;;;;;7391013;19;20007;-77
2022/09/06 00:59:34;;;;;;;0.90;0.90;;;;;;;;;;7390451;19;20009;-78
2022/09/06 01:01:59;;;;;;;1.95;1.50;;;;;;;;;;7389631;19;20013;-76
2022/09/06 01:04:25;;;;;;;1.10;1.00;;;;;;;;;;7392743;19;19999;-77
2022/09/06 01:07:12;;;;;;;2.05;1.35;;;;;;;;;;7392149;19;20010;-77
2022/09/06 01:09:47;;;;;;;1.83;1.42;;;;;;;;;;7392487;19;20297;-76
2022/09/06 01:12:36;;;;;;;1.33;0.90;;;;;;;;;;7390539;19;20018;-76
2022/09/06 01:15:01;;;;;;;2.47;1.65;;;;;;;;;;7389529;19;20014;-76
2022/09/06 01:17:45;;;;;;;1.92;1.50;;;;;;;;;;7391653;19;20015;-77
2022/09/06 01:20:26;;;;;;;2.58;1.75;;;;;;;;;;7388660;19;20475;-77
2022/09/06 01:22:51;;;;;;;2.30;1.70;;;;;;;;;;7391490;19;20107;-76
2022/09/06 01:25:35;;;;;;;3.42;1.42;;;;;;;;;;7391659;19;20042;-76
2022/09/06 01:28:22;;;;;;;1.77;1.38;;;;;;;;;;7390518;19;20027;-76
2022/09/06 01:30:56;;;;;;;2.67;1.60;;;;;;;;;;7391306;19;20006;-77
2022/09/06 01:33:40;;;;;;;1.85;1.40;;;;;;;;;;7392706;19;20011;-76
2022/09/06 01:36:11;;;;;;;1.17;1.08;;;;;;;;;;7389797;19;20106;-77
2022/09/06 01:38:37;;;;;;;2.25;1.60;;;;;;;;;;7391308;19;20018;-78
2022/09/06 01:41:02;;;;;;;1.33;1.00;;;;;;;;;;7392039;19;20492;-76
2022/09/06 01:43:36;;;;;;;4.50;1.50;;;;;;;;;;7390516;19;20014;-77
2022/09/06 01:46:14;;;;;;;2.58;1.35;;;;;;;;;;7391180;19;20007;-77
2022/09/06 01:49:07;;;;;;;3.20;1.17;;;;;;;;;;7388595;19;20019;-77
2022/09/06 01:51:58;;;;;;;3.47;1.30;;;;;;;;;;7393025;19;19998;-76
2022/09/06 01:54:47;;;;;;;1.30;1.10;;;;;;;;;;7389426;19;20014;-77
2022/09/06 01:57:47;;;;;;;3.40;1.33;;;;;;;;;;7390680;19;20006;-77
2022/09/06 02:00:16;;;;;;;3.47;1.63;;;;;;;;;;7392755;19;20054;-76
2022/09/06 02:02:47;;;;;;;1.67;1.25;;;;;;;;;;7391605;19;20480;-77
2022/09/06 02:05:23;;;;;;;1.60;1.23;;;;;;;;;;7391075;19;20011;-76
2022/09/06 02:07:53;;;;;;;1.58;1.40;;;;;;;;;;7391733;19;20053;-77
2022/09/06 02:10:27;;;;;;;6.70;1.80;;;;;;;;;;7387847;19;20010;-76
2022/09/06 02:12:58;;;;;;;2.80;1.83;;;;;;;;;;7391811;19;20014;-76
2022/09/06 02:15:33;;;;;;;2.25;1.60;;;;;;;;;;7391032;19;20002;-77
2022/09/06 02:18:04;;;;;;;;;;;;;;;;;;7391223;19;20070;-76
2022/09/06 02:20:32;;;;;;;1.73;1.40;;;;;;;;;;7390053;19;19911;-76
2022/09/06 02:23:03;;;;;;;3.00;2.03;;;;;;;;;;7390034;19;20015;-77
2022/09/06 02:25:37;;;;;;;3.17;1.38;;;;;;;;;;7390112;19;20410;-77
2022/09/06 02:28:02;;;;;;;2.78;1.85;;;;;;;;;;7389246;19;20014;-77
2022/09/06 02:30:28;;;;;;;6.05;2.28;;;;;;;;;;7391013;19;20094;-76
2022/09/06 02:33:03;;;;;;;1.60;1.35;;;;;;;;;;7389649;19;20035;-77
2022/09/06 02:35:29;;;;;;;2.03;1.42;;;;;;;;;;7389440;19;20002;-77
2022/09/06 02:37:55;;;;;;;2.00;1.80;;;;;;;;;;7387181;19;20006;-76
2022/09/06 02:40:21;;;;;;;1.98;1.60;;;;;;;;;;7391131;19;20330;-78
2022/09/06 02:42:47;;;;;;;1.80;1.60;;;;;;;;;;7391326;19;20038;-77
2022/09/06 02:45:12;;;;;;;2.22;1.67;;;;;;;;;;7390846;19;20068;-76
2022/09/06 02:47:38;;;;;;;2.10;1.65;;;;;;;;;;7390401;19;20014;-76
2022/09/06 02:50:03;;;;;;;1.83;1.30;;;;;;;;;;7389032;19;20087;-77
2022/09/06 02:52:29;;;;;;;3.30;1.70;;;;;;;;;;7390847;19;20032;-76
2022/09/06 02:54:54;;;;;;;1.38;1.27;;;;;;;;;;7389916;19;20006;-77
2022/09/06 02:57:19;;;;;;;1.80;1.10;;;;;;;;;;7389830;19;20031;-76
2022/09/06 02:59:45;;;;;;;2.40;1.85;;;;;;;;;;7390640;19;20022;-77
2022/09/06 03:02:10;;;;;;;2.60;1.63;;;;;;;;;;7391075;19;20081;-77
2022/09/06 03:04:35;;;;;;;7.03;2.08;;;;;;;;;;7389428;19;20021;-76
2022/09/06 03:07:01;;;;;;;1.63;1.30;;;;;;;;;;7390744;19;20015;-75
2022/09/06 03:09:26;;;;;;;2.30;1.63;;;;;;;;;;7389781;19;20007;-77
2022/09/06 03:11:51;;;;;;;5.03;1.90;;;;;;;;;;7388653;19;20451;-77
2022/09/06 03:14:18;;;;;;;3.95;1.95;;;;;;;;;;7391399;19;20495;-76
2022/09/06 03:16:43;;;;;;;1.77;1.30;;;;;;;;;;7389831;19;20031;-78
2022/09/06 03:19:09;;;;;;;2.22;1.60;;;;;;;;;;7389120;19;20069;-76
2022/09/06 03:21:34;;;;;;;2.92;1.52;;;;;;;;;;7389631;19;20011;-77
2022/09/06 03:24:00;;;;;;;2.95;1.60;;;;;;;;;;7389866;19;20021;-78
2022/09/06 03:26:26;;;;;;;1.10;1.00;;;;;;;;;;7396946;19;20015;-76
2022/09/06 03:28:52;;;;;;;1.95;1.40;;;;;;;;;;7394739;19;20013;-77
2022/09/06 03:31:17;;;;;;;2.38;1.85;;;;;;;;;;7395851;19;20038;-77
2022/09/06 03:33:42;;;;;;;2.13;1.77;;;;;;;;;;7395756;19;20002;-76
2022/09/06 03:36:08;;;;;;;2.00;1.73;;;;;;;;;;7395423;19;20009;-77
2022/09/06 03:38:33;;;;;;;2.25;1.55;;;;;;;;;;7391063;19;20110;-76
2022/09/06 03:40:58;;;;;;;9.15;2.28;;;;;;;;;;7395548;19;20087;-77
2022/09/06 03:43:25;;;;;;;3.30;1.77;;;;;;;;;;7393832;19;20010;-80
2022/09/06 03:45:53;;;;;;;1.67;1.30;;;;;;;;;;7395935;19;20395;-76
2022/09/06 03:48:20;;;;;;;2.42;1.63;;;;;;;;;;7395532;19;20006;-77
2022/09/06 03:50:47;;;;;;;2.78;1.75;;;;;;;;;;7396019;19;20355;-77
2022/09/06 03:53:14;;;;;;;3.25;1.55;;;;;;;;;;7395922;19;20035;-77
2022/09/06 03:55:39;;;;;;;3.17;1.63;;;;;;;;;;7394406;19;20018;-76
2022/09/06 03:58:04;;;;;;;2.15;1.67;;;;;;;;;;7394798;19;20691;-76
2022/09/06 04:00:32;;;;;;;3.20;1.63;;;;;;;;;;7395355;19;20044;-76
2022/09/06 04:02:57;;;;;;;3.50;2.00;;;;;;;;;;7395619;19;20106;-77
2022/09/06 04:05:23;;;;;;;3.22;1.50;;;;;;;;;;7397162;19;20349;-77
2022/09/06 04:07:48;;;;;;;3.60;1.65;;;;;;;;;;7394595;19;20031;-77
2022/09/06 04:10:13;;;;;;;2.83;1.30;;;;;;;;;;7395513;19;20039;-76
2022/09/06 04:12:39;;;;;;;2.45;1.92;;;;;;;;;;7395883;19;20006;-77
2022/09/06 04:15:05;;;;;;;2.03;1.70;;;;;;;;;;7396448;19;20014;-76
2022/09/06 04:17:30;;;;;;;2.88;1.40;;;;;;;;;;7394595;19;20006;-76
2022/09/06 04:19:55;;;;;;;1.98;1.48;;;;;;;;;;7395841;19;20007;-77
2022/09/06 04:22:21;;;;;;;3.55;1.45;;;;;;;;;;7395456;19;20647;-77
2022/09/06 04:24:46;;;;;;;2.88;2.00;;;;;;;;;;7394990;19;20022;-76
2022/09/06 04:27:11;;;;;;;2.08;1.70;;;;;;;;;;7395579;19;20006;-77
2022/09/06 04:29:37;;;;;;;1.88;1.45;;;;;;;;;;7394451;19;20011;-77
2022/09/06 04:32:02;;;;;;;2.10;1.90;;;;;;;;;;7392907;19;20010;-77
2022/09/06 04:34:27;;;;;;;2.47;1.90;;;;;;;;;;7394422;19;20006;-78
2022/09/06 04:36:53;;;;;;;4.07;2.00;;;;;;;;;;7393299;19;20034;-76
2022/09/06 04:39:18;;;;;;;2.47;1.20;;;;;;;;;;7393819;19;20018;-76
2022/09/06 04:41:43;;;;;;;2.10;1.20;;;;;;;;;;7393539;19;20003;-78
2022/09/06 04:44:09;;;;;;;2.58;1.30;;;;;;;;;;7393001;19;20036;-77
2022/09/06 04:46:34;;;;;;;4.47;1.85;;;;;;;;;;7390538;19;19995;-77
2022/09/06 04:49:00;;;;;;;1.65;1.40;;;;;;;;;;7389414;19;20018;-77
2022/09/06 04:51:26;;;;;;;2.67;1.30;;;;;;;;;;7392826;19;20103;-76
2022/09/06 04:53:52;;;;;;;1.85;1.45;;;;;;;;;;7392139;19;20017;-76
2022/09/06 04:56:20;;;;;;;2.22;1.58;;;;;;;;;;7392048;19;20445;-77
2022/09/06 04:58:47;;;;;;;2.83;1.88;;;;;;;;;;7390566;19;20031;-75
2022/09/06 05:01:13;;;;;;;2.90;1.83;;;;;;;;;;7395953;19;20082;-75
2022/09/06 05:03:38;;;;;;;3.75;1.75;;;;;;;;;;7391486;19;20031;-76
2022/09/06 05:06:13;;;;;;;10.80;2.10;;;;;;;;;;7392721;19;20507;-76
2022/09/06 05:08:40;;;;;;;2.38;1.80;;;;;;;;;;7389127;19;20022;-77
2022/09/06 05:11:06;;;;;;;4.35;2.00;;;;;;;;;;7393812;19;20002;-76
2022/09/06 05:13:32;;;;;;;3.20;2.00;;;;;;;;;;7392784;19;19998;-75
2022/09/06 05:16:02;;;;;;;2.08;1.80;;;;;;;;;;7392641;19;20035;-76
2022/09/06 05:18:27;;;;;;;2.95;2.25;;;;;;;;;;7390241;19;20009;-76
2022/09/06 05:20:53;;;;;;;2.67;1.73;;;;;;;;;;7384500;19;20074;-76
2022/09/06 05:23:22;;;;;;;2.17;1.65;;;;;;;;;;7393087;19;20070;-77
2022/09/06 05:25:48;;;;;;;3.47;1.92;;;;;;;;;;7391705;19;20500;-76
2022/09/06 05:28:14;;;;;;;2.38;1.52;;;;;;;;;;7387294;19;20006;-76
2022/09/06 05:30:40;;;;;;;2.85;1.95;;;;;;;;;;7388146;19;19998;-77
2022/09/06 05:33:07;;;;;;;2.70;2.03;;;;;;;;;;7391972;19;20121;-76
2022/09/06 05:35:32;;;;;;;5.13;2.25;;;;;;;;;;7389910;19;20007;-77
2022/09/06 05:37:57;;;;;;;3.47;2.55;;;;;;;;;;7390348;19;20019;-76
2022/09/06 05:40:23;;;;;;;4.78;2.90;;;;;;;;;;7393236;19;20086;-77
2022/09/06 05:42:48;;;;;;;5.88;3.05;;;;;;;;;;7389894;19;20873;-75
2022/09/06 05:45:14;;;;;;;3.85;2.70;;;;;;;;;;7390686;19;20003;-76
2022/09/06 05:47:39;;;;;;;5.28;2.80;;;;;;;;;;7385783;19;20021;-76
2022/09/06 05:50:05;;;;;;;3.83;2.47;;;;;;;;;;7387217;19;20006;-76
2022/09/06 05:52:31;;;;;;;5.45;2.95;;;;;;;;;;7391245;19;20034;-76
2022/09/06 05:54:57;;;;;;;3.78;2.88;;;;;;;;;;7393491;19;20468;-76
2022/09/06 05:57:22;;;;;;;7.43;2.97;;;;;;;;;;7386666;19;20468;-77
2022/09/06 05:59:48;;;;;;;6.00;2.83;;;;;;;;;;7392704;19;20009;-76
2022/09/06 06:02:13;;;;;;;5.72;3.47;;;;;;;;;;7390165;19;20353;-76
2022/09/06 06:04:39;;;;;;;3.67;2.90;;;;;;;;;;7388611;19;20768;-76
2022/09/06 06:07:04;;;;;;;5.68;2.83;;;;;;;;;;7388463;19;20023;-77
2022/09/06 06:09:30;;;;;;;4.68;2.40;;;;;;;;;;7390150;19;20317;-76
2022/09/06 06:11:55;;;;;;;4.25;2.25;;;;;;;;;;7386250;19;20039;-76
2022/09/06 06:14:21;;;;;;;3.15;2.35;;;;;;;;;;7389693;19;20015;-75
2022/09/06 06:16:46;;;;;;;3.65;2.65;;;;;;;;;;7386817;19;20548;-76
2022/09/06 06:19:11;;;;;;;4.50;2.78;;;;;;;;;;7391091;19;20058;-76
2022/09/06 06:21:37;;;;;;;3.42;2.85;;;;;;;;;;7388401;19;20015;-76
2022/09/06 06:24:04;;;;;;;3.13;2.63;;;;;;;;;;7383790;19;20014;-76
2022/09/06 06:26:35;;;;;;;5.82;2.60;;;;;;;;;;7387853;19;20031;-76
2022/09/06 06:29:01;;;;;;;3.05;2.38;;;;;;;;;;7386984;19;20027;-79
2022/09/06 06:31:31;;;;;;;2.85;2.40;;;;;;;;;;7390448;19;20085;-77
2022/09/06 06:33:57;;;;;;;3.22;2.75;;;;;;;;;;7388339;19;20031;-77
2022/09/06 06:36:25;;;;;;;4.00;3.05;;;;;;;;;;7388480;19;20018;-77
2022/09/06 06:38:52;;;;;;;3.47;2.55;;;;;;;;;;7382937;19;20280;-77
2022/09/06 06:41:20;;;;;;;5.13;2.60;;;;;;;;;;7392356;19;20067;-77
2022/09/06 06:43:45;;;;;;;2.72;2.20;;;;;;;;;;7391592;19;20002;-77
2022/09/06 06:46:16;;;;;;;3.35;2.10;;;;;;;;;;7391059;19;20329;-77
2022/09/06 06:48:43;;;;;;;3.33;2.20;;;;;;;;;;7388240;19;20039;-78
2022/09/06 06:51:10;;;;;;;4.63;2.08;;;;;;;;;;7392280;19;19999;-77
2022/09/06 06:53:35;;;;;;;2.55;1.65;;;;;;;;;;7387071;19;20002;-77
2022/09/06 06:56:15;;;;;;;4.03;2.03;;;;;;;;;;7388075;19;19999;-78
2022/09/06 06:58:41;;;;;;;2.30;1.80;;;;;;;;;;7397551;19;20065;-77
2022/09/06 07:01:06;;;;;;;3.28;2.10;;;;;;;;;;7399452;19;20037;-77
2022/09/06 07:03:32;;;;;;;3.50;1.77;;;;;;;;;;7395971;19;20069;-77
2022/09/06 07:05:57;;;;;;;3.00;1.95;;;;;;;;;;7397378;19;20006;-77
2022/09/06 07:08:22;;;;;;;2.00;1.60;;;;;;;;;;7396882;19;20096;-78
2022/09/06 07:10:47;;;;;;;1.65;1.52;;;;;;;;;;7395906;19;20456;-77
2022/09/06 07:13:13;;;;;;;2.85;1.80;;;;;;;;;;7394951;19;20001;-77
2022/09/06 07:15:38;;;;;;;4.45;1.80;;;;;;;;;;7394241;19;20329;-77
2022/09/06 07:18:03;;;;;;;2.17;1.80;;;;;;;;;;7395211;19;20452;-78
2022/09/06 07:20:29;;;;;;;3.00;1.70;;;;;;;;;;7394784;19;20030;-78
2022/09/06 07:23:03;;;;;;;3.05;1.80;;;;;;;;;;7395799;19;20010;-77
2022/09/06 07:25:28;;;;;;;1.88;1.52;;;;;;;;;;7398717;19;19994;-77
2022/09/06 07:28:05;;;;;;;4.05;1.60;;;;;;;;;;7393175;19;19999;-77
2022/09/06 07:30:32;;;;;;;1.70;1.60;;;;;;;;;;7397512;19;20011;-78
2022/09/06 07:32:58;;;;;;;2.90;1.48;;;;;;;;;;7397468;19;20693;-78
2022/09/06 07:35:25;;;;;;;2.10;1.60;;;;;;;;;;7397770;19;20014;-77
2022/09/06 07:37:55;;;;;;;1.70;1.60;;;;;;;;;;7395820;19;20484;-77
2022/09/06 07:40:21;;;;;;;4.05;1.30;;;;;;;;;;7395325;19;20015;-77
2022/09/06 07:42:46;;;;;;;2.72;1.65;;;;;;;;;;7396215;19;20007;-77
2022/09/06 07:45:11;;;;;;;1.95;1.40;;;;;;;;;;7397115;19;20019;-77
2022/09/06 07:47:37;;;;;;;2.53;1.60;;;;;;;;;;7395201;19;20003;-76
2022/09/06 07:50:03;;;;;;;1.92;1.33;;;;;;;;;;7395178;19;20338;-77
2022/09/06 07:52:28;;;;;;;2.50;1.30;;;;;;;;;;7397546;19;20010;-77
2022/09/06 07:54:55;;;;;;;2.63;1.70;;;;;;;;;;7396019;19;20003;-77
2022/09/06 07:57:21;;;;;;;1.50;1.40;;;;;;;;;;7396670;19;20023;-77
2022/09/06 07:59:47;;;;;;;3.42;1.33;;;;;;;;;;7396295;19;20126;-77
2022/09/06 08:02:12;;;;;;;2.22;1.65;;;;;;;;;;7396453;19;20020;-78
2022/09/06 08:04:39;;;;;;;2.10;1.60;;;;;;;;;;7397261;19;20035;-78
2022/09/06 08:07:05;;;;;;;3.10;1.50;;;;;;;;;;7393075;19;20519;-78
2022/09/06 08:09:31;;;;;;;2.25;1.40;;;;;;;;;;7394272;19;20027;-78
2022/09/06 08:11:57;;;;;;;1.83;1.50;;;;;;;;;;7393010;19;20078;-77
2022/09/06 08:14:22;;;;;;;3.22;1.65;;;;;;;;;;7392934;19;20036;-77
2022/09/06 08:16:48;;;;;;;1.52;1.30;;;;;;;;;;7394973;19;20005;-78
2022/09/06 08:19:13;;;;;;;4.63;1.50;;;;;;;;;;7395439;19;19987;-77
2022/09/06 08:21:39;;;;;;;3.65;1.38;;;;;;;;;;7397234;19;19995;-78
2022/09/06 08:24:06;;;;;;;2.38;1.35;;;;;;;;;;7392772;19;20755;-78
2022/09/06 08:26:34;;;;;;;2.25;1.10;;;;;;;;;;7392784;19;20010;-77
2022/09/06 08:29:02;;;;;;;1.77;1.30;;;;;;;;;;7387548;19;20025;-77
2022/09/06 08:31:29;;;;;;;3.35;1.17;;;;;;;;;;7390862;19;20007;-77
2022/09/06 08:33:56;;;;;;;1.45;1.10;;;;;;;;;;7395316;19;20066;-77
2022/09/06 08:36:22;;;;;;;4.00;1.27;;;;;;;;;;7393361;19;20153;-77
2022/09/06 08:38:47;;;;;;;1.48;1.10;;;;;;;;;;7393785;19;20010;-78
2022/09/06 08:41:13;;;;;;;1.15;0.80;;;;;;;;;;7396173;19;20113;-77
2022/09/06 08:43:45;;;;;;;1.17;0.88;;;;;;;;;;7392714;19;20006;-78
2022/09/06 08:46:11;;;;;;;8.00;1.13;;;;;;;;;;7394044;19;20018;-77
2022/09/06 08:48:38;;;;;;;2.67;1.15;;;;;;;;;;7389017;19;20043;-77
2022/09/06 08:51:32;;;;;;;4.38;0.93;;;;;;;;;;7389694;19;20070;-78
2022/09/06 08:54:04;;;;;;;1.33;0.70;;;;;;;;;;7389939;19;21521;-78
2022/09/06 08:56:41;;;;;;;2.95;1.05;;;;;;;;;;7391934;19;20009;-79
2022/09/06 08:59:12;;;;;;;1.70;0.90;;;;;;;;;;7383475;19;20003;-79
2022/09/06 09:02:08;;;;;;;2.75;1.00;;;;;;;;;;7387558;19;20078;-79
2022/09/06 09:04:37;;;;;;;1.65;0.80;;;;;;;;;;7389679;19;20070;-78
2022/09/06 09:07:37;;;;;;;4.15;1.00;;;;;;;;;;7391910;19;20022;-78
2022/09/06 09:10:11;;;;;;;1.65;0.93;;;;;;;;;;7394532;19;20106;-77
2022/09/06 09:12:48;;;;;;;1.50;1.00;;;;;;;;;;7394321;19;20009;-77
2022/09/06 09:15:16;;;;;;;1.83;0.80;;;;;;;;;;7388954;19;19999;-77
2022/09/06 09:17:42;;;;;;;1.88;0.98;;;;;;;;;;7392209;19;19999;-78
2022/09/06 09:20:07;;;;;;;3.35;1.02;;;;;;;;;;7390268;19;20342;-79
2022/09/06 09:22:34;;;;;;;1.70;1.10;;;;;;;;;;7390660;19;20021;-78
2022/09/06 09:25:01;;;;;;;2.78;0.90;;;;;;;;;;7389383;19;20010;-81
2022/09/06 09:27:28;;;;;;;1.73;0.73;;;;;;;;;;7389429;19;20205;-78
2022/09/06 09:29:53;;;;;;;3.65;0.90;;;;;;;;;;7392219;19;20014;-77
2022/09/06 09:32:35;;;;;;;2.13;1.15;;;;;;;;;;7390064;19;20356;-77
2022/09/06 09:35:28;;;;;;;3.05;0.80;;;;;;;;;;7384134;19;20077;-77
2022/09/06 09:38:06;;;;;;;2.10;0.90;;;;;;;;;;7387802;19;20027;-78
2022/09/06 09:40:40;;;;;;;1.45;0.52;;;;;;;;;;7392641;19;20006;-78
2022/09/06 09:43:19;;;;;;;1.15;0.65;;;;;;;;;;7392906;19;19994;-77
2022/09/06 09:45:45;;;;;;;2.08;0.80;;;;;;;;;;7393618;19;20340;-77
2022/09/06 09:48:23;;;;;;;2.47;0.75;;;;;;;;;;7391718;19;20007;-78
2022/09/06 09:50:49;;;;;;;2.38;0.57;;;;;;;;;;7392627;19;20002;-77
2022/09/06 09:53:18;;;;;;;3.58;0.88;;;;;;;;;;7390120;19;20035;-77
2022/09/06 09:55:44;;;;;;;2.75;1.00;;;;;;;;;;7388935;19;20023;-78
2022/09/06 09:58:34;;;;;;;3.30;0.80;;;;;;;;;;7384997;19;20652;-78
2022/09/06 10:01:16;;;;;;;2.47;0.90;;;;;;;;;;7388846;19;20006;-78
2022/09/06 10:03:42;;;;;;;3.33;0.68;;;;;;;;;;7397613;19;20526;-78
2022/09/06 10:06:12;;;;;;;1.67;0.75;;;;;;;;;;7399065;19;20106;-78
2022/09/06 10:08:41;;;;;;;2.95;0.75;;;;;;;;;;7393062;19;20070;-79
2022/09/06 10:11:10;;;;;;;4.47;1.02;;;;;;;;;;7396422;19;20436;-79
2022/09/06 10:13:36;;;;;;;6.07;0.73;;;;;;;;;;7397621;19;20039;-79
2022/09/06 10:16:02;;;;;;;2.83;0.80;;;;;;;;;;7397585;19;20007;-79
2022/09/06 10:18:42;;;;;;;2.72;0.90;;;;;;;;;;7392887;19;20018;-77
2022/09/06 10:21:22;;;;;;;2.80;0.70;;;;;;;;;;7395990;19;20013;-77
2022/09/06 10:24:03;;;;;;;5.00;0.90;;;;;;;;;;7391327;19;20396;-78
2022/09/06 10:26:44;;;;;;;1.95;0.50;;;;;;;;;;7391568;19;20010;-79
2022/09/06 10:29:09;;;;;;;1.77;0.70;;;;;;;;;;7392829;19;20475;-77
2022/09/06 10:31:53;;;;;;;2.08;0.85;;;;;;;;;;7392814;19;20031;-79
2022/09/06 10:34:44;;;;;;;1.27;0.68;;;;;;;;;;7394060;19;20021;-78
2022/09/06 10:37:31;;;;;;;1.30;0.50;;;;;;;;;;7393931;19;20006;-78
2022/09/06 10:40:20;;;;;;;3.15;0.75;;;;;;;;;;7398112;19;20038;-78
2022/09/06 10:42:49;;;;;;;1.60;0.70;;;;;;;;;;7397548;19;20013;-78
2022/09/06 10:45:34;;;;;;;1.75;0.60;;;;;;;;;;7398528;19;20089;-77
2022/09/06 10:48:23;;;;;;;3.63;0.52;;;;;;;;;;7395158;19;20034;-78
2022/09/06 10:51:02;;;;;;;2.47;1.00;;;;;;;;;;7396725;19;20031;-77
2022/09/06 10:53:38;;;;;;;2.15;0.70;;;;;;;;;;7397622;19;20023;-77
2022/09/06 10:56:09;;;;;;;2.33;0.90;;;;;;;;;;7397531;19;20017;-78
2022/09/06 10:59:00;;;;;;;3.33;0.85;;;;;;;;;;7394678;19;20010;-78
2022/09/06 11:01:40;;;;;;;2.75;0.80;;;;;;;;;;7394727;19;20015;-78
2022/09/06 11:04:10;;;;;;;2.75;0.82;;;;;;;;;;7397355;19;20018;-77
2022/09/06 11:06:44;;;;;;;2.67;0.60;;;;;;;;;;7395698;19;20010;-78
2022/09/06 11:09:21;;;;;;;3.30;0.80;;;;;;;;;;7394098;19;20423;-78
2022/09/06 11:11:57;;;;;;;5.35;0.93;;;;;;;;;;7400072;19;20361;-77
2022/09/06 11:14:25;;;;;;;5.13;0.88;;;;;;;;;;7396930;19;20017;-78
2022/09/06 11:17:01;;;;;;;2.70;1.00;;;;;;;;;;7395979;19;20317;-77
2022/09/06 11:19:38;;;;;;;7.95;1.30;;;;;;;;;;7395828;19;20015;-78
2022/09/06 11:22:40;;;;;;;2.95;0.90;;;;;;;;;;7401162;19;20092;-79
2022/09/06 11:25:17;;;;;;;2.42;1.05;;;;;;;;;;7403737;19;20014;-78
2022/09/06 11:27:49;;;;;;;2.28;0.88;;;;;;;;;;7399275;19;20022;-77
2022/09/06 11:30:16;;;;;;;4.72;1.40;;;;;;;;;;7394847;19;20002;-78
2022/09/06 11:32:49;;;;;;;2.63;0.73;;;;;;;;;;7398353;19;20084;-78
2022/09/06 11:35:30;;;;;;;4.38;1.02;;;;;;;;;;7401736;19;20003;-78
2022/09/06 11:38:12;;;;;;;3.58;0.98;;;;;;;;;;7402393;19;20328;-78
2022/09/06 11:40:41;;;;;;;2.47;1.02;;;;;;;;;;7403016;19;20014;-78
2022/09/06 11:43:10;;;;;;;2.50;1.10;;;;;;;;;;7397164;19;20010;-78
2022/09/06 11:45:40;;;;;;;1.75;0.73;;;;;;;;;;7393321;19;20360;-79
2022/09/06 11:48:25;;;;;;;5.97;1.10;;;;;;;;;;7396777;19;20003;-78
2022/09/06 11:50:53;;;;;;;4.25;1.20;;;;;;;;;;7398257;19;20039;-79
2022/09/06 11:53:20;;;;;;;1.98;1.08;;;;;;;;;;7398716;19;20007;-78
2022/09/06 11:55:50;;;;;;;3.63;1.10;;;;;;;;;;7396526;19;20102;-77
2022/09/06 11:58:16;;;;;;;3.58;1.20;;;;;;;;;;7395344;19;20010;-79
2022/09/06 12:00:42;;;;;;;5.57;1.08;;;;;;;;;;7399489;19;20490;-79
2022/09/06 12:03:09;;;;;;;4.25;1.15;;;;;;;;;;7398065;19;20017;-78
2022/09/06 12:06:13;;;;;;;6.30;1.50;;;;;;;;;;7400831;19;20006;-78
2022/09/06 12:08:39;;;;;;;5.00;1.20;;;;;;;;;;7395652;19;20507;-78
2022/09/06 12:11:20;;;;;;;4.22;1.25;;;;;;;;;;7396174;19;20086;-77
2022/09/06 12:13:54;;;;;;;2.97;0.95;;;;;;;;;;7398533;19;20010;-78
2022/09/06 12:16:21;;;;;;;6.00;1.23;;;;;;;;;;7399550;19;20010;-79
2022/09/06 12:18:46;;;;;;;8.85;1.23;;;;;;;;;;7393309;19;20006;-79
2022/09/06 12:21:30;;;;;;;5.40;1.15;;;;;;;;;;7395020;19;20021;-78
2022/09/06 12:23:56;;;;;;;3.50;0.88;;;;;;;;;;7396684;19;20002;-79
2022/09/06 12:26:49;;;;;;;4.05;0.93;;;;;;;;;;7392912;19;20480;-78
2022/09/06 12:29:22;;;;;;;2.80;0.80;;;;;;;;;;7394136;19;20011;-78
2022/09/06 12:31:55;;;;;;;8.90;1.25;;;;;;;;;;7395692;19;20018;-78
2022/09/06 12:34:24;;;;;;;5.30;1.23;;;;;;;;;;7396710;19;20026;-78
2022/09/06 12:37:02;;;;;;;4.60;1.00;;;;;;;;;;7393475;19;20021;-79
2022/09/06 12:39:28;;;;;;;5.05;1.15;;;;;;;;;;7397963;19;20034;-78
2022/09/06 12:42:00;;;;;;;6.32;1.08;;;;;;;;;;7394731;19;20460;-78
2022/09/06 12:44:42;;;;;;;6.43;1.20;;;;;;;;;;7397524;19;20448;-79
2022/09/06 12:47:16;;;;;;;6.32;1.30;;;;;;;;;;7393583;19;19995;-78
2022/09/06 12:49:41;;;;;;;4.15;0.95;;;;;;;;;;7400401;19;20035;-78
2022/09/06 12:52:15;;;;;;;3.40;0.98;;;;;;;;;;7399295;19;20002;-79
2022/09/06 12:54:44;;;;;;;3.13;1.00;;;;;;;;;;7397982;19;20009;-79
2022/09/06 12:57:17;;;;;;;6.88;1.65;;;;;;;;;;7400295;19;20006;-79
2022/09/06 12:59:52;;;;;;;12.13;1.80;;;;;;;;;;7397076;19;20488;-77
2022/09/06 13:02:27;;;;;;;;;;;;;;;;;;7398873;19;20206;-79
2022/09/06 13:05:04;;;;;;;4.82;1.17;;;;;;;;;;7389661;19;20031;-78
2022/09/06 13:07:34;;;;;;;5.50;1.15;;;;;;;;;;7396705;19;20519;-78
2022/09/06 13:10:00;;;;;;;4.82;1.25;;;;;;;;;;7400595;19;20150;-78
2022/09/06 13:12:31;;;;;;;8.68;1.10;;;;;;;;;;7409750;19;20123;-79
2022/09/06 13:15:19;;;;;;;6.55;1.15;;;;;;;;;;7396681;19;20031;-79
2022/09/06 13:17:46;;;;;;;7.43;1.17;;;;;;;;;;7384319;19;20065;-78
2022/09/06 13:20:26;;;;;;;4.90;1.13;;;;;;;;;;7383758;19;20014;-78
2022/09/06 13:23:03;;;;;;;3.45;1.10;;;;;;;;;;7385919;19;20007;-78
2022/09/06 13:25:29;;;;;;;2.05;0.80;;;;;;;;;;7387651;19;20009;-78
2022/09/06 13:27:57;;;;;;;4.53;1.10;;;;;;;;;;7386292;19;20863;-77
2022/09/06 13:30:44;;;;;;;4.82;1.20;;;;;;;;;;7387556;19;20034;-79
2022/09/06 13:33:25;;;;;;;3.10;0.93;;;;;;;;;;7388630;19;20078;-78
2022/09/06 13:36:08;;;;;;;3.00;1.00;;;;;;;;;;7392307;19;20139;-78
2022/09/06 13:38:40;;;;;;;4.97;0.90;;;;;;;;;;7389037;19;20378;-77
2022/09/06 13:41:26;;;;;;;3.97;1.08;;;;;;;;;;7390775;19;20115;-78
2022/09/06 13:44:06;;;;;;;2.60;1.25;;;;;;;;;;7389464;19;20007;-79
2022/09/06 13:46:33;;;;;;;6.38;1.20;;;;;;;;;;7393882;19;20318;-79
2022/09/06 13:48:58;;;;;;;3.58;1.08;;;;;;;;;;7383063;19;20605;-78
2022/09/06 13:51:25;;;;;;;8.27;1.13;;;;;;;;;;7392189;19;20061;-79
2022/09/06 13:54:02;;;;;;;5.30;1.17;;;;;;;;;;7388946;19;20118;-77
2022/09/06 13:56:27;;;;;;;5.65;1.95;;;;;;;;;;7393325;19;20010;-78
2022/09/06 13:58:52;;;;;;;5.57;1.20;;;;;;;;;;7389850;19;20483;-78
2022/09/06 14:01:18;;;;;;;3.00;1.20;;;;;;;;;;7383313;19;20015;-78
2022/09/06 14:03:43;;;;;;;3.55;1.25;;;;;;;;;;7390554;19;20338;-78
2022/09/06 14:06:09;;;;;;;9.95;1.80;;;;;;;;;;7389023;19;20705;-78
2022/09/06 14:08:36;;;;;;;5.30;1.30;;;;;;;;;;7386488;19;20013;-79
2022/09/06 14:11:02;;;;;;;3.40;1.40;;;;;;;;;;7390096;19;20037;-79
2022/09/06 14:13:27;;;;;;;10.63;1.50;;;;;;;;;;7397440;19;20006;-78
2022/09/06 14:15:52;;;;;;;4.55;1.20;;;;;;;;;;7390112;19;20010;-78
2022/09/06 14:18:18;;;;;;;3.70;1.30;;;;;;;;;;7389736;19;20014;-78
2022/09/06 14:20:54;;;;;;;6.63;1.27;;;;;;;;;;7389227;19;20014;-78
2022/09/06 14:23:20;;;;;;;6.15;1.35;;;;;;;;;;7394049;19;20056;-78
2022/09/06 14:25:45;;;;;;;3.22;1.15;;;;;;;;;;7393998;19;19999;-78
2022/09/06 14:28:11;;;;;;;4.60;1.10;;;;;;;;;;7392372;19;20034;-78
2022/09/06 14:30:36;;;;;;;9.90;1.10;;;;;;;;;;7387521;19;20464;-78
2022/09/06 14:33:02;;;;;;;5.70;1.23;;;;;;;;;;7391012;19;20015;-77
2022/09/06 14:35:30;;;;;;;3.72;1.45;;;;;;;;;;7393435;19;20608;-78
2022/09/06 14:37:56;;;;;;;6.05;1.45;;;;;;;;;;7390998;19;20011;-78
2022/09/06 14:40:21;;;;;;;3.17;1.02;;;;;;;;;;7386540;19;20003;-80
2022/09/06 14:42:46;;;;;;;3.85;0.98;;;;;;;;;;7390566;19;20010;-79
2022/09/06 14:45:12;;;;;;;5.38;1.10;;;;;;;;;;7390722;19;20028;-79
2022/09/06 14:47:37;;;;;;;4.47;1.00;;;;;;;;;;7389432;19;20006;-79
2022/09/06 14:50:03;;;;;;;4.72;1.20;;;;;;;;;;7389247;19;20025;-80
2022/09/06 14:52:28;;;;;;;5.18;1.40;;;;;;;;;;7391000;19;20001;-79
2022/09/06 14:54:54;;;;;;;1.77;0.98;;;;;;;;;;7389377;19;20138;-79
2022/09/06 14:57:19;;;;;;;2.75;1.23;;;;;;;;;;7391837;19;19991;-79
2022/09/06 14:59:44;;;;;;;4.30;1.20;;;;;;;;;;7390847;19;20007;-79